This is the latest recevied weather packets stored in our database for station/object N4OOJ-13. If no packets are shown the sender has not sent any weather packets the latest 10 day(s).
| Time | Temp. | Humidity | Pressure | Rain* | Wind** | Luminosity | Snow |
|---|---|---|---|---|---|---|---|
| 1787525420 | 36.67° C | 49% | 1014.3 hPa | 0 mm | - | - | - |
| 1787524816 | 37.78° C | 48% | 1014.3 hPa | 0 mm | - | - | - |
| 1787524222 | 37.22° C | 49% | 1014.3 hPa | 0 mm | - | - | - |
| 1787523621 | 37.22° C | 49% | 1014.3 hPa | 0 mm | - | - | - |
| 1787523033 | 35° C | 56% | 1014.3 hPa | 0 mm | - | - | - |
| 1787522428 | 34.44° C | 56% | 1014.3 hPa | 0 mm | - | - | - |
| 1787521823 | 35° C | 51% | 1014.1 hPa | 0 mm | - | - | - |
| 1787521222 | 36.11° C | 49% | 1014.1 hPa | 0 mm | - | - | - |
| 1787520620 | 35.56° C | 54% | 1014 hPa | 0 mm | - | - | - |
| 1787520025 | 36.11° C | 48% | 1014 hPa | 0 mm | - | - | - |
| 1787519420 | 36.11° C | 52% | 1014 hPa | 0 mm | - | - | - |
| 1787518815 | 35.56° C | 51% | 1014 hPa | 0 mm | - | - | - |
| 1787518217 | 36.67° C | 47% | 1014 hPa | 0 mm | - | - | - |
| 1787517630 | 36.11° C | 50% | 1014.1 hPa | 0 mm | - | - | - |
| 1787517025 | 36.11° C | 48% | 1014.2 hPa | 0 mm | - | - | - |
| 1787516419 | 36.67° C | 50% | 1014 hPa | 0 mm | - | - | - |
| 1787515833 | 36.11° C | 50% | 1014.1 hPa | 0 mm | - | - | - |
| 1787515235 | 37.22° C | 49% | 1014.1 hPa | 0 mm | - | - | - |
| 1787514630 | 36.11° C | 50% | 1014.3 hPa | 0 mm | - | - | - |
| 1787514026 | 35.56° C | 56% | 1014.6 hPa | 0 mm | - | - | - |
| 1787513427 | 36.11° C | 52% | 1014.7 hPa | 0 mm | - | - | - |
| 1787512822 | 36.11° C | 52% | 1014.9 hPa | 0 mm | - | - | - |
| 1787512233 | 36.67° C | 52% | 1015 hPa | 0 mm | - | - | - |
| 1787511627 | 36.11° C | 53% | 1015.1 hPa | 0 mm | - | - | - |
| 1787511022 | 36.11° C | 52% | 1015.2 hPa | 0 mm | - | - | - |
* Rain latest hour (hover to see other rain measurements)
** Current wind speed in m/s (hover to see current wind gust speed)